< < Back
Terminal Aerodrome Forecast


Current Version              Previous Versions:   1  2  3  4  5  6  7  8  9  

Terminal Aerodrome Forecast

878
FTUS42 KTAE 211000 AAC
TAFDHN
TAF AMD
KDHN 211014Z 2110/2206 03005KT 2SM BR SCT004
      TEMPO 2110/2112 1/2SM FG VV003
     FM211200 00000KT 5SM BR SKC
     FM211300 30004KT P6SM FEW250=

Latest METAR

090
SAUS70 KWBC 211800 RRH
MTRDHN
METAR KDHN 211753Z VRB03KT 10SM CLR 29/17 A3006 RMK AO2 SLP174 T02940167
10300 20172 58015


USA.gov is the U.S. government's official web portal to all federal, state and local government web resources and services.